Time;durP1;ratioP1;P1;durP2;ratioP2;P2;SDS_P1;SDS_P2;PMS_P1;PMS_P2;Temp;Humidity;BMP_temperature;BMP_pressure;BME280_temperature;BME280_humidity;BME280_pressure;Samples;Min_cycle;Max_cycle;Signal;HPM_P1;HPM_P2
2022/03/23 00:00:26;;;;;;;14.02;8.77;;;5.90;66.60;;;;;;5053873;28;20021;-66
2022/03/23 00:02:52;;;;;;;16.52;8.45;;;5.90;66.60;;;;;;5065073;28;20024;-67
2022/03/23 00:05:20;;;;;;;21.60;9.52;;;5.90;66.70;;;;;;5075023;28;20047;-66
2022/03/23 00:07:49;;;;;;;15.43;8.80;;;5.80;66.60;;;;;;5072854;28;20374;-67
2022/03/23 00:10:18;;;;;;;15.50;8.55;;;5.80;66.50;;;;;;5072631;28;20031;-66
2022/03/23 00:12:44;;;;;;;18.73;8.57;;;5.80;66.40;;;;;;5073701;28;20493;-65
2022/03/23 00:15:19;;;;;;;15.20;8.48;;;5.70;66.40;;;;;;5059815;28;20110;-67
2022/03/23 00:17:50;;;;;;;17.95;8.13;;;5.70;66.60;;;;;;5068557;28;20055;-66
2022/03/23 00:20:16;;;;;;;15.23;7.70;;;5.70;66.50;;;;;;5070944;28;20036;-67
2022/03/23 00:22:42;;;;;;;15.60;7.82;;;5.70;66.70;;;;;;5060447;28;20028;-67
2022/03/23 00:25:14;;;;;;;17.10;8.30;;;5.70;66.90;;;;;;5072578;28;20036;-67
2022/03/23 00:27:42;;;;;;;18.23;8.90;;;5.60;67.20;;;;;;5065235;28;20027;-67
2022/03/23 00:30:10;;;;;;;16.17;8.75;;;5.70;67.00;;;;;;5063305;28;20028;-67
2022/03/23 00:32:35;;;;;;;17.38;8.35;;;5.60;66.90;;;;;;5073055;28;20031;-67
2022/03/23 00:35:02;;;;;;;17.85;9.23;;;5.60;67.10;;;;;;5071883;28;20021;-67
2022/03/23 00:37:28;;;;;;;15.35;8.35;;;5.60;67.20;;;;;;5068845;28;20058;-67
2022/03/23 00:39:53;;;;;;;16.80;8.23;;;5.60;67.20;;;;;;5072494;28;20040;-67
2022/03/23 00:42:19;;;;;;;14.85;8.05;;;5.60;67.00;;;;;;5070759;28;20017;-66
2022/03/23 00:44:45;;;;;;;16.17;8.57;;;5.60;67.10;;;;;;5070875;28;20044;-67
2022/03/23 00:47:11;;;;;;;16.48;8.50;;;5.60;67.10;;;;;;5071492;28;20135;-67
2022/03/23 00:49:37;;;;;;;15.13;8.18;;;5.60;67.10;;;;;;5072636;28;20456;-67
2022/03/23 00:52:05;;;;;;;14.15;7.90;;;5.50;66.90;;;;;;5069418;28;20360;-67
2022/03/23 00:54:35;;;;;;;20.92;7.72;;;5.50;67.20;;;;;;5058724;28;20027;-67
2022/03/23 00:57:03;;;;;;;17.10;7.97;;;5.50;67.20;;;;;;5073083;28;20051;-66
2022/03/23 00:59:28;;;;;;;16.50;8.75;;;5.50;67.30;;;;;;5070613;28;20440;-67
2022/03/23 01:01:54;;;;;;;19.83;9.20;;;5.40;68.20;;;;;;5070340;28;20048;-67
2022/03/23 01:04:20;;;;;;;19.48;9.88;;;5.30;70.10;;;;;;5072712;28;20032;-66
2022/03/23 01:06:46;;;;;;;21.15;10.98;;;5.30;72.90;;;;;;5073269;28;20525;-67
2022/03/23 01:09:12;;;;;;;18.80;11.45;;;5.20;74.30;;;;;;5072365;28;20370;-66
2022/03/23 01:11:41;;;;;;;19.13;10.75;;;5.20;75.10;;;;;;5072390;28;20039;-67
2022/03/23 01:14:07;;;;;;;21.45;11.48;;;5.10;75.90;;;;;;5070551;28;20500;-67
2022/03/23 01:16:36;;;;;;;25.55;11.93;;;5.10;76.40;;;;;;5079289;28;20028;-67
2022/03/23 01:19:02;;;;;;;25.77;12.80;;;5.00;77.50;;;;;;5072567;28;20028;-67
2022/03/23 01:21:28;;;;;;;22.27;12.93;;;5.00;78.10;;;;;;5072569;28;20025;-67
2022/03/23 01:24:06;;;;;;;22.67;12.52;;;4.90;78.70;;;;;;5068319;28;20028;-67
2022/03/23 01:26:32;;;;;;;23.30;12.88;;;4.90;79.00;;;;;;5064194;28;20051;-67
2022/03/23 01:29:02;;;;;;;22.33;12.60;;;4.80;79.70;;;;;;5070633;28;20495;-66
2022/03/23 01:31:27;;;;;;;27.17;13.98;;;4.80;80.40;;;;;;5070721;28;20033;-67
2022/03/23 01:33:59;;;;;;;26.20;13.32;;;4.80;81.70;;;;;;5069195;28;20408;-65
2022/03/23 01:36:31;;;;;;;24.70;14.07;;;4.70;81.70;;;;;;5072232;28;20020;-67
2022/03/23 01:39:00;;;;;;;27.67;13.77;;;4.60;82.40;;;;;;5064643;28;20104;-67
2022/03/23 01:41:28;;;;;;;21.83;12.15;;;4.50;82.50;;;;;;5072133;28;20418;-65
2022/03/23 01:44:00;;;;;;;26.92;12.65;;;4.40;82.60;;;;;;5070202;28;20104;-66
2022/03/23 01:46:32;;;;;;;21.13;11.52;;;4.30;83.50;;;;;;5065108;28;20020;-66
2022/03/23 01:48:58;;;;;;;23.15;12.80;;;4.30;84.20;;;;;;5071945;28;20009;-65
2022/03/23 01:51:24;;;;;;;25.92;12.38;;;4.30;84.60;;;;;;5080955;22;20041;-67
2022/03/23 01:53:52;;;;;;;22.77;11.85;;;4.20;85.60;;;;;;5024014;28;20041;-68
2022/03/23 01:56:22;;;;;;;26.63;12.45;;;4.20;85.70;;;;;;5021539;28;20025;-67
2022/03/23 01:58:51;;;;;;;20.83;11.77;;;4.20;86.40;;;;;;5027301;28;20084;-67
2022/03/23 02:01:23;;;;;;;23.17;12.35;;;4.20;87.40;;;;;;5025512;28;20112;-67
2022/03/23 02:03:48;;;;;;;20.75;10.95;;;4.20;87.40;;;;;;5018575;28;20041;-68
2022/03/23 02:06:20;;;;;;;15.77;9.45;;;4.20;86.70;;;;;;5024763;28;20386;-67
2022/03/23 02:08:49;;;;;;;17.63;9.40;;;4.20;85.60;;;;;;5020905;28;20120;-68
2022/03/23 02:11:15;;;;;;;15.55;8.73;;;4.20;84.70;;;;;;5020493;28;20052;-68
2022/03/23 02:13:48;;;;;;;21.40;9.25;;;4.10;84.40;;;;;;5018662;28;20404;-68
2022/03/23 02:16:14;;;;;;;18.90;8.75;;;4.20;84.20;;;;;;5027503;28;20033;-67
2022/03/23 02:18:40;;;;;;;17.95;9.07;;;4.10;84.20;;;;;;5022482;28;20033;-68
2022/03/23 02:21:05;;;;;;;16.80;9.02;;;4.10;84.50;;;;;;5018158;28;20104;-69
2022/03/23 02:23:31;;;;;;;13.80;8.52;;;4.10;83.90;;;;;;5022884;28;20052;-67
2022/03/23 02:26:02;;;;;;;14.52;8.35;;;4.00;84.10;;;;;;5015660;28;20506;-67
2022/03/23 02:28:28;;;;;;;14.25;8.25;;;4.00;84.10;;;;;;5018394;28;20447;-68
2022/03/23 02:30:57;;;;;;;16.42;8.65;;;4.00;84.50;;;;;;5020224;28;20073;-66
2022/03/23 02:33:22;;;;;;;16.80;9.38;;;4.00;84.40;;;;;;5017522;28;20526;-68
2022/03/23 02:35:48;;;;;;;13.70;8.40;;;4.00;84.60;;;;;;5021849;28;20116;-67
2022/03/23 02:38:20;;;;;;;18.08;8.30;;;3.90;84.30;;;;;;5020482;28;20033;-68
2022/03/23 02:40:49;;;;;;;17.20;7.95;;;3.90;84.10;;;;;;5025010;28;20512;-68
2022/03/23 02:43:15;;;;;;;16.17;8.65;;;3.90;84.10;;;;;;5017866;28;20022;-68
2022/03/23 02:45:40;;;;;;;16.95;8.82;;;3.90;83.70;;;;;;5015597;28;20037;-67
2022/03/23 02:48:07;;;;;;;17.10;8.55;;;3.80;83.40;;;;;;5023282;28;20026;-67
2022/03/23 02:50:35;;;;;;;16.45;7.82;;;3.80;83.50;;;;;;5019063;28;20040;-67
2022/03/23 03:01:57;;;;;;;13.85;7.28;;;3.70;84.60;;;;;;5019680;28;20105;-68
2022/03/23 03:04:24;;;;;;;16.67;7.45;;;3.70;84.30;;;;;;5025482;28;20026;-67
2022/03/23 03:06:52;;;;;;;15.30;8.32;;;3.60;84.00;;;;;;5021799;28;20482;-68
2022/03/23 03:09:21;;;;;;;13.40;7.88;;;3.70;83.30;;;;;;5019433;28;20025;-67
2022/03/23 03:11:48;;;;;;;14.52;8.30;;;3.60;83.40;;;;;;5020799;28;20026;-68
2022/03/23 03:14:13;;;;;;;14.45;7.82;;;3.60;83.60;;;;;;5014867;28;20116;-68
2022/03/23 03:16:45;;;;;;;16.75;8.20;;;3.60;83.80;;;;;;5028115;28;20096;-67
2022/03/23 03:19:17;;;;;;;13.00;7.72;;;3.60;83.70;;;;;;5017807;28;20111;-67
2022/03/23 03:21:45;;;;;;;14.43;7.97;;;3.60;83.70;;;;;;5024106;28;20072;-68
2022/03/23 03:24:11;;;;;;;12.80;6.90;;;3.60;83.40;;;;;;5023110;28;20564;-68
2022/03/23 03:26:40;;;;;;;13.30;7.32;;;3.60;83.60;;;;;;5021839;28;20077;-68
2022/03/23 03:29:08;;;;;;;14.15;7.28;;;3.60;83.60;;;;;;5021976;28;20112;-68
2022/03/23 03:31:37;;;;;;;15.05;7.60;;;3.50;83.50;;;;;;5018179;28;20048;-68
2022/03/23 03:34:52;;;;;;;15.90;7.63;;;3.60;84.00;;;;;;5022437;28;20512;-68
2022/03/23 03:37:18;;;;;;;13.07;7.80;;;3.60;84.20;;;;;;5018649;28;20030;-67
2022/03/23 03:39:43;;;;;;;12.82;7.97;;;3.60;83.70;;;;;;5025832;28;20029;-68
2022/03/23 03:42:09;;;;;;;15.10;8.48;;;3.50;83.50;;;;;;5024387;28;20017;-67
2022/03/23 03:44:44;;;;;;;16.63;9.40;;;3.50;84.90;;;;;;5029034;28;20385;-68
2022/03/23 03:47:10;;;;;;;21.55;11.73;;;3.40;87.30;;;;;;5025290;28;20037;-67
2022/03/23 03:49:39;;;;;;;22.02;11.40;;;3.40;89.80;;;;;;5026272;28;20075;-66
2022/03/23 03:52:05;;;;;;;23.42;11.73;;;3.30;90.80;;;;;;5025948;28;20041;-67
2022/03/23 03:54:31;;;;;;;21.48;11.07;;;3.20;91.40;;;;;;5024045;28;20482;-67
2022/03/23 03:56:57;;;;;;;21.17;10.73;;;3.20;92.20;;;;;;5021470;28;20025;-67
2022/03/23 03:59:23;;;;;;;24.63;12.88;;;3.20;92.70;;;;;;5026266;28;20065;-66
2022/03/23 04:01:49;;;;;;;23.70;12.05;;;3.10;93.50;;;;;;5032254;28;20076;-68
2022/03/23 04:04:15;;;;;;;21.77;10.93;;;3.20;94.20;;;;;;5028457;28;20490;-67
2022/03/23 04:06:41;;;;;;;23.88;11.65;;;3.10;94.30;;;;;;5030901;28;20048;-67
2022/03/23 04:09:06;;;;;;;23.65;11.90;;;3.10;94.40;;;;;;5024957;28;20048;-68
2022/03/23 04:11:32;;;;;;;20.10;11.48;;;3.00;94.70;;;;;;5025388;28;20473;-67
2022/03/23 04:13:58;;;;;;;28.88;12.90;;;2.90;95.20;;;;;;5026815;28;20588;-67
2022/03/23 04:16:24;;;;;;;23.60;11.75;;;2.90;95.90;;;;;;5021586;28;20449;-67
2022/03/23 04:18:49;;;;;;;21.75;12.02;;;2.80;96.30;;;;;;5028275;28;20585;-67
2022/03/23 04:21:16;;;;;;;22.17;11.95;;;2.70;96.60;;;;;;5027237;28;20086;-67
2022/03/23 04:23:41;;;;;;;21.27;11.85;;;2.60;97.20;;;;;;5024274;28;20030;-67
2022/03/23 04:26:07;;;;;;;21.08;11.32;;;2.60;98.00;;;;;;5021585;28;20025;-67
2022/03/23 04:28:33;;;;;;;22.52;10.15;;;2.60;98.10;;;;;;5018959;28;20041;-67
2022/03/23 04:31:01;;;;;;;17.42;9.45;;;2.60;97.30;;;;;;5027972;28;20029;-67
2022/03/23 04:33:26;;;;;;;16.80;9.02;;;2.60;97.20;;;;;;5017098;28;20037;-67
2022/03/23 04:35:52;;;;;;;16.25;8.52;;;2.60;97.00;;;;;;5023785;28;20486;-66
2022/03/23 04:38:18;;;;;;;15.65;7.65;;;2.60;96.40;;;;;;5024383;28;20022;-67
2022/03/23 04:40:45;;;;;;;13.35;7.30;;;2.60;95.80;;;;;;5021794;28;20026;-67
2022/03/23 04:43:10;;;;;;;16.67;8.07;;;2.60;95.70;;;;;;5029088;28;20478;-67
2022/03/23 04:45:36;;;;;;;14.50;7.95;;;2.60;95.00;;;;;;5021143;28;20083;-67
2022/03/23 04:48:02;;;;;;;16.60;8.18;;;2.50;94.90;;;;;;5022206;28;20029;-67
2022/03/23 04:50:28;;;;;;;14.93;8.15;;;2.60;95.30;;;;;;5021047;28;20041;-67
2022/03/23 04:52:54;;;;;;;17.23;7.85;;;2.60;95.40;;;;;;5019536;28;20401;-66
2022/03/23 04:55:20;;;;;;;15.80;7.93;;;2.50;94.70;;;;;;5028627;28;20095;-67
2022/03/23 04:57:46;;;;;;;16.75;7.88;;;2.50;94.70;;;;;;5028022;28;20091;-67
2022/03/23 05:00:16;;;;;;;16.45;7.18;;;2.60;94.60;;;;;;5021498;28;20129;-67
2022/03/23 05:02:43;;;;;;;18.98;8.57;;;2.50;94.50;;;;;;5027504;28;20501;-67
2022/03/23 05:05:13;;;;;;;15.50;8.38;;;2.50;94.60;;;;;;5026685;28;20379;-66
2022/03/23 05:07:43;;;;;;;15.55;7.95;;;2.40;94.50;;;;;;5026258;28;20029;-66
2022/03/23 05:10:10;;;;;;;15.02;8.18;;;2.40;94.90;;;;;;5023197;28;20569;-66
2022/03/23 05:12:44;;;;;;;16.25;8.23;;;2.40;95.40;;;;;;5019987;28;20483;-66
2022/03/23 05:15:11;;;;;;;18.00;9.70;;;2.30;96.00;;;;;;5027027;28;20092;-67
2022/03/23 05:17:38;;;;;;;21.35;10.60;;;2.30;97.00;;;;;;5023522;28;20021;-66
2022/03/23 05:20:05;;;;;;;22.00;11.32;;;2.20;98.40;;;;;;5027219;28;20022;-66
2022/03/23 05:22:31;;;;;;;21.05;10.65;;;2.20;99.00;;;;;;5027136;28;20030;-67
2022/03/23 05:24:57;;;;;;;20.33;10.93;;;2.10;99.50;;;;;;5028593;28;20057;-67
2022/03/23 05:27:23;;;;;;;20.48;10.70;;;2.10;99.90;;;;;;5022486;28;20090;-67
2022/03/23 05:29:49;;;;;;;18.30;9.43;;;2.00;99.90;;;;;;5024813;28;20060;-67
2022/03/23 05:32:20;;;;;;;21.13;10.48;;;2.00;99.90;;;;;;5017798;28;20048;-67
2022/03/23 05:34:50;;;;;;;19.83;9.75;;;2.10;99.90;;;;;;5020923;28;20120;-67
2022/03/23 05:37:19;;;;;;;17.85;10.15;;;2.00;99.90;;;;;;5021908;28;20029;-66
2022/03/23 05:39:45;;;;;;;22.17;11.13;;;2.00;99.90;;;;;;5020793;28;20096;-67
2022/03/23 05:42:11;;;;;;;22.45;11.98;;;1.90;99.90;;;;;;5021937;28;20025;-67
2022/03/23 05:44:38;;;;;;;18.40;10.93;;;1.90;99.90;;;;;;5018931;28;20504;-66
2022/03/23 05:47:04;;;;;;;20.45;10.57;;;1.90;99.90;;;;;;5018348;28;20068;-67
2022/03/23 05:49:30;;;;;;;27.20;11.10;;;2.00;99.90;;;;;;5026968;28;20054;-67
2022/03/23 05:51:56;;;;;;;23.02;10.80;;;2.00;99.90;;;;;;5020846;28;20042;-66
2022/03/23 05:54:23;;;;;;;21.52;10.63;;;2.10;99.90;;;;;;5020412;28;20107;-67
2022/03/23 05:56:49;;;;;;;22.02;11.30;;;2.20;99.90;;;;;;5023779;28;20439;-66
2022/03/23 05:59:15;;;;;;;30.77;12.25;;;2.20;99.90;;;;;;5026275;28;20017;-67
2022/03/23 06:01:40;;;;;;;24.35;11.70;;;2.30;99.90;;;;;;5019106;28;20030;-67
2022/03/23 06:04:06;;;;;;;23.10;11.80;;;2.30;99.90;;;;;;5021676;28;20065;-67
2022/03/23 06:06:31;;;;;;;26.23;12.00;;;2.40;99.90;;;;;;5020477;28;20033;-67
2022/03/23 06:08:57;;;;;;;19.75;10.70;;;2.40;99.90;;;;;;5022207;28;20033;-67
2022/03/23 06:11:23;;;;;;;20.00;10.95;;;2.50;99.90;;;;;;5019306;28;20033;-67
2022/03/23 06:13:49;;;;;;;18.80;10.85;;;2.50;99.90;;;;;;5022586;28;20101;-67
2022/03/23 06:16:16;;;;;;;22.73;10.85;;;2.60;99.90;;;;;;5020630;28;20123;-68
2022/03/23 06:18:41;;;;;;;22.27;9.40;;;2.60;99.40;;;;;;5020914;28;20512;-67
2022/03/23 06:21:07;;;;;;;22.70;10.20;;;2.70;99.30;;;;;;5013805;28;20108;-67
2022/03/23 06:23:33;;;;;;;17.88;9.85;;;2.80;98.90;;;;;;5024484;28;20025;-67
2022/03/23 06:26:00;;;;;;;18.60;9.98;;;2.90;98.70;;;;;;5023405;28;20610;-68
2022/03/23 06:28:26;;;;;;;22.92;11.43;;;3.00;98.90;;;;;;5019029;28;20112;-67
2022/03/23 06:30:52;;;;;;;21.08;11.85;;;3.10;98.90;;;;;;5022501;28;20057;-68
2022/03/23 06:33:19;;;;;;;19.80;11.07;;;3.20;98.90;;;;;;5011648;28;20064;-67
2022/03/23 06:35:45;;;;;;;21.10;11.38;;;3.20;98.80;;;;;;5022837;28;20068;-66
2022/03/23 06:38:11;;;;;;;20.95;11.88;;;3.30;98.90;;;;;;5018906;28;20025;-67
2022/03/23 06:40:37;;;;;;;24.95;13.43;;;3.40;98.30;;;;;;5021024;28;20128;-67
2022/03/23 06:43:03;;;;;;;30.48;13.07;;;3.40;98.00;;;;;;5016769;28;20569;-68
2022/03/23 06:45:29;;;;;;;26.48;13.13;;;3.50;98.30;;;;;;5017417;28;20497;-68
2022/03/23 06:47:55;;;;;;;26.13;12.65;;;3.50;98.00;;;;;;5025791;28;20494;-68
2022/03/23 06:50:21;;;;;;;27.38;12.70;;;3.60;97.70;;;;;;5021389;28;20040;-69
2022/03/23 06:52:47;;;;;;;24.42;12.63;;;3.70;97.50;;;;;;5021384;28;20099;-69
2022/03/23 06:55:12;;;;;;;25.08;12.40;;;3.70;97.20;;;;;;5022993;28;20061;-67
2022/03/23 06:57:38;;;;;;;21.65;11.95;;;3.80;96.60;;;;;;5022231;28;20025;-68
2022/03/23 07:00:15;;;;;;;23.17;11.73;;;3.90;96.50;;;;;;5024637;28;20398;-67
2022/03/23 07:02:45;;;;;;;25.33;11.95;;;4.00;96.40;;;;;;5022270;28;20060;-68
2022/03/23 07:05:13;;;;;;;19.70;11.60;;;4.00;95.90;;;;;;5024226;28;20029;-68
2022/03/23 07:09:31;;;;;;;17.48;10.38;;;4.10;95.50;;;;;;5023666;28;20030;-68
2022/03/23 07:10:25;;;;;;;24.83;11.55;;;4.20;95.30;;;;;;5029498;28;20030;-68
2022/03/23 07:12:51;;;;;;;22.60;11.13;;;4.30;94.90;;;;;;5018016;28;20022;-69
2022/03/23 07:15:17;;;;;;;21.52;11.73;;;4.40;94.30;;;;;;5021315;28;20032;-68
2022/03/23 07:17:42;;;;;;;23.38;10.80;;;4.50;94.00;;;;;;5021003;28;20018;-68
2022/03/23 07:20:08;;;;;;;26.10;11.63;;;4.50;94.10;;;;;;5024679;28;20021;-68
2022/03/23 07:22:34;;;;;;;26.88;12.40;;;4.60;93.60;;;;;;5019226;28;20029;-68
2022/03/23 07:25:00;;;;;;;28.85;12.50;;;4.70;93.20;;;;;;5022444;28;20069;-68
2022/03/23 07:27:26;;;;;;;23.85;12.02;;;4.70;92.70;;;;;;5024610;28;20037;-67
2022/03/23 07:29:52;;;;;;;21.52;11.30;;;4.80;92.80;;;;;;5017054;28;20033;-67
2022/03/23 07:32:21;;;;;;;25.75;12.18;;;4.90;92.40;;;;;;5027477;28;20362;-67
2022/03/23 07:34:46;;;;;;;28.30;11.95;;;4.90;92.30;;;;;;5018391;28;20029;-68
2022/03/23 07:37:12;;;;;;;24.30;12.48;;;5.00;92.30;;;;;;5024617;28;20080;-68
2022/03/23 07:39:38;;;;;;;20.70;11.23;;;5.10;92.00;;;;;;5032058;28;20034;-68
2022/03/23 07:42:05;;;;;;;25.40;11.25;;;5.30;91.40;;;;;;5029926;28;20079;-67
2022/03/23 07:44:32;;;;;;;17.98;10.32;;;5.40;90.70;;;;;;5023386;28;20031;-68
2022/03/23 07:46:59;;;;;;;19.50;11.77;;;5.50;90.20;;;;;;5026802;28;20029;-68
2022/03/23 07:49:25;;;;;;;18.40;10.73;;;5.50;89.50;;;;;;5018751;28;20125;-67
2022/03/23 07:51:51;;;;;;;21.83;11.88;;;5.60;89.80;;;;;;5033643;23;20034;-78
2022/03/23 07:54:17;;;;;;;22.20;11.20;;;5.70;88.70;;;;;;5013073;28;20038;-78
2022/03/23 07:56:44;;;;;;;24.38;11.85;;;5.80;88.70;;;;;;5013442;28;20040;-77
2022/03/23 07:59:09;;;;;;;20.88;11.18;;;5.90;89.20;;;;;;5011489;28;20037;-78
2022/03/23 08:01:35;;;;;;;23.02;12.30;;;6.10;88.30;;;;;;5010211;28;20431;-78
2022/03/23 08:04:01;;;;;;;23.77;12.43;;;6.10;88.20;;;;;;5013038;28;20032;-78
2022/03/23 08:06:28;;;;;;;21.58;12.00;;;6.20;88.30;;;;;;5007979;28;20023;-78
2022/03/23 08:08:55;;;;;;;21.58;12.30;;;6.20;88.00;;;;;;5015398;28;20018;-78
2022/03/23 08:11:21;;;;;;;24.23;12.63;;;6.30;87.70;;;;;;5017717;28;20045;-78
2022/03/23 08:13:47;;;;;;;22.98;12.13;;;6.40;87.20;;;;;;5010837;28;20022;-78
2022/03/23 08:16:13;;;;;;;25.73;12.82;;;6.50;86.50;;;;;;5011400;28;20490;-77
2022/03/23 08:18:39;;;;;;;29.95;13.07;;;6.60;85.00;;;;;;5012668;28;20026;-77
2022/03/23 08:21:05;;;;;;;21.02;11.70;;;6.60;83.80;;;;;;5004639;28;20023;-77
2022/03/23 08:23:32;;;;;;;21.00;11.98;;;6.70;84.00;;;;;;5009471;28;20055;-78
2022/03/23 08:25:58;;;;;;;23.80;12.30;;;6.80;83.20;;;;;;5010925;28;20029;-78
2022/03/23 08:28:24;;;;;;;24.25;12.48;;;6.90;82.60;;;;;;5014658;28;20124;-78
2022/03/23 08:30:50;;;;;;;19.48;12.32;;;7.00;81.60;;;;;;5011229;28;20026;-78
2022/03/23 08:33:16;;;;;;;21.80;11.95;;;7.20;80.20;;;;;;5010513;28;20068;-78
2022/03/23 08:35:42;;;;;;;20.80;11.18;;;7.20;79.20;;;;;;5011119;28;20030;-78
2022/03/23 08:38:08;;;;;;;22.60;11.88;;;7.30;78.50;;;;;;5007787;28;20026;-79
2022/03/23 08:40:34;;;;;;;20.35;11.10;;;7.40;78.30;;;;;;5006698;28;20030;-78
2022/03/23 08:43:01;;;;;;;21.33;12.00;;;7.50;78.20;;;;;;5019459;28;20062;-79
2022/03/23 08:45:27;;;;;;;20.63;12.13;;;7.60;78.20;;;;;;5015242;28;20073;-79
2022/03/23 08:47:54;;;;;;;19.45;10.98;;;7.80;77.80;;;;;;5015081;28;20035;-78
2022/03/23 08:50:19;;;;;;;22.27;11.45;;;7.80;78.10;;;;;;5022313;28;20056;-79
2022/03/23 08:52:45;;;;;;;20.48;11.63;;;7.90;76.90;;;;;;5013095;28;20034;-77
2022/03/23 08:55:16;;;;;;;20.52;11.48;;;7.90;76.60;;;;;;5006048;28;20057;-78
2022/03/23 08:57:42;;;;;;;23.27;12.23;;;8.00;75.70;;;;;;5021853;28;20019;-77
2022/03/23 09:00:09;;;;;;;19.30;11.05;;;8.10;75.70;;;;;;5008989;28;20021;-76
2022/03/23 09:02:35;;;;;;;20.35;10.90;;;8.20;76.00;;;;;;4964888;28;20533;-77
2022/03/23 09:05:01;;;;;;;21.63;11.60;;;8.30;74.00;;;;;;5006459;28;20034;-77
2022/03/23 09:07:27;;;;;;;19.27;11.18;;;8.40;72.50;;;;;;5009503;28;20037;-77
2022/03/23 09:09:53;;;;;;;20.67;12.02;;;8.50;73.10;;;;;;5007487;28;20030;-77
2022/03/23 09:12:18;;;;;;;20.95;11.55;;;8.60;73.40;;;;;;5010310;28;20029;-79
2022/03/23 09:14:44;;;;;;;24.52;11.80;;;8.70;73.40;;;;;;5011766;28;20089;-77
2022/03/23 09:17:10;;;;;;;21.17;12.18;;;8.80;72.90;;;;;;5021876;28;20025;-79
2022/03/23 09:19:36;;;;;;;22.27;12.55;;;8.90;72.90;;;;;;5011935;28;20101;-78
2022/03/23 09:22:01;;;;;;;19.85;12.55;;;8.90;73.30;;;;;;5012179;28;20046;-79
2022/03/23 09:24:28;;;;;;;22.75;12.57;;;9.00;73.50;;;;;;5006961;28;20032;-78
2022/03/23 09:26:55;;;;;;;21.60;12.50;;;9.20;72.80;;;;;;5012639;28;20479;-77
2022/03/23 09:29:21;;;;;;;20.95;11.70;;;9.20;73.10;;;;;;5011203;28;20032;-77
2022/03/23 09:31:47;;;;;;;23.17;12.38;;;9.40;72.60;;;;;;5008831;28;20026;-77
2022/03/23 09:34:13;;;;;;;21.23;13.27;;;9.50;72.10;;;;;;5024711;28;20129;-79
2022/03/23 09:39:23;;;;;;;23.50;13.10;;;9.60;71.00;;;;;;5013443;28;20036;-79
2022/03/23 09:41:49;;;;;;;25.67;13.35;;;9.70;71.40;;;;;;5013811;28;20421;-79
2022/03/23 09:44:15;;;;;;;18.83;12.10;;;9.80;70.80;;;;;;5012187;28;20056;-77
2022/03/23 09:46:42;;;;;;;17.40;11.05;;;10.00;70.20;;;;;;5011325;28;20033;-79
2022/03/23 09:49:08;;;;;;;21.30;11.95;;;10.00;67.90;;;;;;5011864;28;20033;-80
2022/03/23 09:51:37;;;;;;;20.85;12.25;;;10.00;68.60;;;;;;5015349;28;20027;-78
2022/03/23 09:54:04;;;;;;;29.00;12.80;;;10.20;67.50;;;;;;5014721;28;20421;-80
2022/03/23 09:56:31;;;;;;;21.45;13.13;;;10.40;67.30;;;;;;5012108;28;20064;-80
2022/03/23 09:58:57;;;;;;;21.40;13.30;;;10.40;67.00;;;;;;5014853;28;20025;-80
2022/03/23 10:01:29;;;;;;;20.35;12.25;;;10.50;66.50;;;;;;5015104;28;20029;-79
2022/03/23 10:04:27;;;;;;;20.27;12.38;;;10.60;65.90;;;;;;5012155;28;20044;-80
2022/03/23 10:07:02;;;;;;;20.58;12.27;;;10.80;64.60;;;;;;5023660;28;20037;-78
2022/03/23 10:09:50;;;;;;;22.27;12.23;;;10.90;64.80;;;;;;5028070;28;20033;-79
2022/03/23 10:12:40;;;;;;;26.35;13.43;;;11.00;64.10;;;;;;5009948;28;20029;-80
2022/03/23 10:16:03;;;;;;;23.48;13.18;;;11.20;63.30;;;;;;5017403;28;20032;-78
2022/03/23 10:18:53;;;;;;;23.95;12.48;;;11.40;61.80;;;;;;5015536;28;20022;-79
2022/03/23 10:21:21;;;;;;;23.77;14.05;;;11.40;62.20;;;;;;5014913;28;20061;-80
2022/03/23 10:24:02;;;;;;;18.92;11.55;;;11.60;61.10;;;;;;5012866;28;20064;-79
2022/03/23 10:26:31;;;;;;;23.05;12.52;;;11.70;61.40;;;;;;5010640;28;20033;-79
2022/03/23 10:28:57;;;;;;;17.05;10.85;;;11.90;58.90;;;;;;5008358;28;20038;-79
2022/03/23 10:31:27;;;;;;;19.98;11.30;;;12.10;56.70;;;;;;5010773;28;21315;-78
2022/03/23 10:34:07;;;;;;;16.35;11.55;;;12.20;55.90;;;;;;5006355;28;20026;-81
2022/03/23 10:36:43;;;;;;;20.50;10.65;;;12.40;53.30;;;;;;5012047;28;20021;-79
2022/03/23 10:39:11;;;;;;;20.52;10.35;;;12.50;52.50;;;;;;5014166;28;20013;-79
2022/03/23 10:41:37;;;;;;;15.70;10.05;;;12.50;53.00;;;;;;5015061;28;20637;-80
2022/03/23 10:44:03;;;;;;;16.40;9.82;;;12.60;51.40;;;;;;5015393;28;20089;-79
2022/03/23 10:46:29;;;;;;;12.45;9.38;;;12.80;51.30;;;;;;5019495;28;20026;-77
2022/03/23 10:49:02;;;;;;;12.15;8.88;;;13.00;50.10;;;;;;5018458;28;20026;-79
2022/03/23 10:51:29;;;;;;;20.08;10.07;;;13.20;50.40;;;;;;5015895;28;20030;-80
2022/03/23 10:53:56;;;;;;;14.95;9.30;;;13.20;50.00;;;;;;5020653;28;20478;-77
2022/03/23 10:56:37;;;;;;;16.85;9.38;;;13.30;48.00;;;;;;5021200;28;20030;-79
2022/03/23 10:59:56;;;;;;;13.48;7.88;;;13.40;48.80;;;;;;5014533;28;20065;-78
2022/03/23 11:02:21;;;;;;;16.90;9.30;;;13.50;47.70;;;;;;5018427;28;20036;-79
2022/03/23 11:04:51;;;;;;;16.25;9.05;;;13.60;49.30;;;;;;5013165;28;20034;-80
2022/03/23 11:07:23;;;;;;;19.50;10.02;;;13.60;47.20;;;;;;5018517;28;20029;-82
2022/03/23 11:18:12;;;;;;;17.83;9.02;;;14.20;45.60;;;;;;5015504;28;19916;-79
2022/03/23 11:20:48;;;;;;;12.07;7.07;;;14.20;43.70;;;;;;5014572;28;20498;-78
2022/03/23 11:23:23;;;;;;;12.73;7.68;;;14.20;42.70;;;;;;5018228;28;20022;-78
2022/03/23 11:25:50;;;;;;;10.25;7.70;;;14.40;42.00;;;;;;5020194;28;20022;-80
2022/03/23 11:28:16;;;;;;;13.20;7.80;;;14.40;42.30;;;;;;5021294;28;20029;-81
2022/03/23 11:30:43;;;;;;;15.77;8.23;;;14.40;42.10;;;;;;5021343;28;20518;-78
2022/03/23 11:33:16;;;;;;;13.40;8.82;;;14.40;43.90;;;;;;5022014;28;20025;-78
2022/03/23 11:35:49;;;;;;;13.38;8.38;;;14.50;44.40;;;;;;5020638;28;20034;-80
2022/03/23 11:38:28;;;;;;;12.07;7.57;;;14.60;42.90;;;;;;5019608;28;20049;-82
2022/03/23 11:40:56;;;;;;;10.52;7.90;;;14.60;41.30;;;;;;5018520;28;20022;-79
2022/03/23 11:43:24;;;;;;;12.77;7.93;;;14.60;40.70;;;;;;5018038;28;20026;-79
2022/03/23 11:45:52;;;;;;;12.52;7.97;;;14.50;41.00;;;;;;5014800;28;20050;-78
2022/03/23 11:48:33;;;;;;;15.80;8.85;;;14.50;41.20;;;;;;5018163;28;20365;-78
2022/03/23 11:51:10;;;;;;;14.50;7.40;;;14.60;41.50;;;;;;5017495;28;20022;-78
2022/03/23 11:54:10;;;;;;;16.63;8.35;;;14.70;40.00;;;;;;5016378;28;20081;-78
2022/03/23 11:56:55;;;;;;;13.98;7.95;;;14.70;39.70;;;;;;5016207;28;20042;-78
2022/03/23 11:59:25;;;;;;;12.63;8.13;;;14.80;41.40;;;;;;5007558;28;20034;-79
2022/03/23 12:01:51;;;;;;;11.50;7.20;;;14.90;40.80;;;;;;5012964;28;20045;-79
2022/03/23 12:04:22;;;;;;;12.95;7.40;;;15.00;40.10;;;;;;5017732;28;20074;-79
2022/03/23 12:07:08;;;;;;;10.63;6.60;;;15.00;39.60;;;;;;5013270;28;20023;-79
2022/03/23 12:09:33;;;;;;;13.10;7.10;;;15.00;39.00;;;;;;5016449;28;20515;-81
2022/03/23 12:12:00;;;;;;;11.77;7.47;;;15.00;39.20;;;;;;5016055;28;20113;-81
2022/03/23 12:14:27;;;;;;;14.40;7.43;;;15.00;39.20;;;;;;5012319;28;20025;-79
2022/03/23 12:16:53;;;;;;;14.43;8.10;;;14.90;40.40;;;;;;5010266;28;20422;-80
2022/03/23 12:19:22;;;;;;;11.77;7.68;;;15.00;39.10;;;;;;5015429;28;20022;-82
2022/03/23 12:22:06;;;;;;;13.13;8.52;;;14.90;39.20;;;;;;5010702;28;20018;-80
2022/03/23 12:24:41;;;;;;;15.93;7.45;;;14.90;38.90;;;;;;5013609;28;20400;-79
2022/03/23 12:27:49;;;;;;;12.18;7.78;;;15.10;38.60;;;;;;5009443;28;20058;-80
2022/03/23 12:30:32;;;;;;;12.77;6.90;;;15.10;38.50;;;;;;5009733;28;20029;-76
2022/03/23 12:33:00;;;;;;;12.13;8.23;;;15.20;37.70;;;;;;5013124;28;20104;-78
2022/03/23 12:35:33;;;;;;;12.90;8.07;;;15.30;37.60;;;;;;5014521;28;20030;-81
2022/03/23 12:38:01;;;;;;;18.13;9.85;;;15.30;37.50;;;;;;5013357;28;21224;-80
2022/03/23 12:40:41;;;;;;;21.33;9.10;;;15.30;37.80;;;;;;5014690;28;20033;-81
2022/03/23 12:43:07;;;;;;;14.50;8.57;;;15.30;37.30;;;;;;5014765;28;20084;-81
2022/03/23 12:45:39;;;;;;;18.25;8.98;;;15.30;37.50;;;;;;5012457;28;20026;-78
2022/03/23 12:59:16;;;;;;;12.82;7.93;;;15.40;37.70;;;;;;5019916;28;20032;-78
2022/03/23 13:01:42;;;;;;;12.88;7.57;;;15.60;37.50;;;;;;5020134;28;20459;-78
2022/03/23 13:04:08;;;;;;;12.45;7.65;;;15.70;37.40;;;;;;5020603;28;20030;-79
2022/03/23 13:06:37;;;;;;;10.85;7.35;;;15.60;37.00;;;;;;5016895;28;20375;-80
2022/03/23 13:09:09;;;;;;;11.95;7.85;;;15.70;37.50;;;;;;5007484;28;20068;-79
2022/03/23 13:11:35;;;;;;;13.45;7.93;;;15.70;37.40;;;;;;5017830;28;20093;-79
2022/03/23 13:14:02;;;;;;;11.77;8.23;;;15.70;37.60;;;;;;5015249;28;20049;-80
2022/03/23 13:16:37;;;;;;;11.88;8.10;;;15.60;37.80;;;;;;5018628;28;20028;-78